createdAt,value
2017-05-07T00:00:02.739Z,1007.02
2017-05-07T00:00:43.319Z,1006.99
2017-05-07T00:01:23.907Z,1006.99
2017-05-07T00:02:04.581Z,1007
2017-05-07T00:02:45.191Z,1007
2017-05-07T00:03:25.759Z,1007
2017-05-07T00:04:06.368Z,1007.03
2017-05-07T00:04:46.984Z,1007.01
2017-05-07T00:05:27.571Z,1007
2017-05-07T00:06:08.234Z,1007.05
2017-05-07T00:06:48.823Z,1007.01
2017-05-07T00:07:29.431Z,1007.03
2017-05-07T00:08:10.031Z,1007.07
2017-05-07T00:08:50.606Z,1007.03
2017-05-07T00:09:31.184Z,1007.06
2017-05-07T00:10:11.768Z,1007.03
2017-05-07T00:10:52.355Z,1007.01
2017-05-07T00:11:32.946Z,1007.05
2017-05-07T00:12:13.606Z,1007.05
2017-05-07T00:12:54.162Z,1006.99
2017-05-07T00:13:34.768Z,1007
2017-05-07T00:14:15.368Z,1006.99
2017-05-07T00:14:55.949Z,1007.01
2017-05-07T00:15:36.534Z,1007.03
2017-05-07T00:16:17.112Z,1006.99
2017-05-07T00:16:57.698Z,1006.99
2017-05-07T00:17:38.321Z,1006.98
2017-05-07T00:18:18.960Z,1006.97
2017-05-07T00:18:59.540Z,1007
2017-05-07T00:19:40.131Z,1006.99
2017-05-07T00:20:20.764Z,1006.96
2017-05-07T00:21:01.397Z,1006.97
2017-05-07T00:21:42.038Z,1006.98
2017-05-07T00:22:22.630Z,1006.95
2017-05-07T00:23:03.225Z,1006.98
2017-05-07T00:23:43.794Z,1006.97
2017-05-07T00:24:24.388Z,1006.97
2017-05-07T00:25:04.960Z,1006.98
2017-05-07T00:25:45.571Z,1006.94
2017-05-07T00:26:26.210Z,1006.97
2017-05-07T00:27:06.779Z,1006.93
2017-05-07T00:27:47.340Z,1006.95
2017-05-07T00:28:27.968Z,1007
2017-05-07T00:29:08.558Z,1006.96
2017-05-07T00:29:49.135Z,1006.97
2017-05-07T00:30:29.726Z,1006.92
2017-05-07T00:31:10.271Z,1006.94
2017-05-07T00:31:50.916Z,1006.94
2017-05-07T00:32:31.521Z,1006.94
2017-05-07T00:33:12.130Z,1006.93
2017-05-07T00:33:52.738Z,1006.96
2017-05-07T00:34:33.332Z,1006.93
2017-05-07T00:35:13.915Z,1006.94
2017-05-07T00:35:54.539Z,1006.91
2017-05-07T00:36:35.114Z,1006.94
2017-05-07T00:37:15.685Z,1006.91
2017-05-07T00:37:56.291Z,1006.92
2017-05-07T00:38:36.908Z,1006.91
2017-05-07T00:39:17.531Z,1006.9
2017-05-07T00:39:58.147Z,1006.9
2017-05-07T00:40:38.745Z,1006.89
2017-05-07T00:41:19.313Z,1006.85
2017-05-07T00:41:59.898Z,1006.86
2017-05-07T00:42:40.477Z,1006.87
2017-05-07T00:43:21.059Z,1006.85
2017-05-07T00:44:01.652Z,1006.86
2017-05-07T00:44:42.230Z,1006.85
2017-05-07T00:45:22.817Z,1006.83
2017-05-07T00:46:03.378Z,1006.81
2017-05-07T00:46:43.963Z,1006.86
2017-05-07T00:47:24.554Z,1006.82
2017-05-07T00:48:05.126Z,1006.82
2017-05-07T00:48:45.696Z,1006.83
2017-05-07T00:49:26.266Z,1006.81
2017-05-07T00:50:06.838Z,1006.78
2017-05-07T00:50:47.411Z,1006.84
2017-05-07T00:51:28.020Z,1006.84
2017-05-07T00:52:08.599Z,1006.84
2017-05-07T00:52:49.186Z,1006.84
2017-05-07T00:53:29.808Z,1006.85
2017-05-07T00:54:10.386Z,1006.83
2017-05-07T00:54:50.965Z,1006.81
2017-05-07T00:55:31.582Z,1006.84
2017-05-07T00:56:12.160Z,1006.81
2017-05-07T00:56:52.739Z,1006.82
2017-05-07T00:57:33.364Z,1006.84
2017-05-07T00:58:13.957Z,1006.8
2017-05-07T00:58:54.542Z,1006.84
2017-05-07T00:59:35.130Z,1006.82
2017-05-07T01:00:15.713Z,1006.82
2017-05-07T01:00:56.321Z,1006.83
2017-05-07T01:01:36.889Z,1006.84
2017-05-07T01:02:17.457Z,1006.83
2017-05-07T01:02:58.052Z,1006.85
2017-05-07T01:03:38.634Z,1006.87
2017-05-07T01:04:19.222Z,1006.87
2017-05-07T01:04:59.820Z,1006.88
2017-05-07T01:05:40.396Z,1006.81
2017-05-07T01:06:20.988Z,1006.82
2017-05-07T01:07:01.580Z,1006.85
2017-05-07T01:07:42.172Z,1006.85
2017-05-07T01:08:22.750Z,1006.88
2017-05-07T01:09:03.323Z,1006.86
2017-05-07T01:09:43.904Z,1006.84
2017-05-07T01:10:24.487Z,1006.87
2017-05-07T01:11:05.085Z,1006.86
2017-05-07T01:11:45.695Z,1006.83
2017-05-07T01:12:26.269Z,1006.85
2017-05-07T01:13:06.906Z,1006.82
2017-05-07T01:13:47.555Z,1006.86
2017-05-07T01:14:28.120Z,1006.85
2017-05-07T01:15:08.724Z,1006.84
2017-05-07T01:15:49.309Z,1006.86
2017-05-07T01:16:29.908Z,1006.86
2017-05-07T01:17:10.529Z,1006.87
2017-05-07T01:17:51.131Z,1006.88
2017-05-07T01:18:31.714Z,1006.89
2017-05-07T01:19:12.281Z,1006.86
2017-05-07T01:19:52.853Z,1006.92
2017-05-07T01:20:33.435Z,1006.89
2017-05-07T01:21:14.026Z,1006.92
2017-05-07T01:21:54.586Z,1006.9
2017-05-07T01:22:35.171Z,1006.9
2017-05-07T01:23:15.787Z,1006.9
2017-05-07T01:23:56.342Z,1006.91
2017-05-07T01:24:36.923Z,1006.9
2017-05-07T01:25:17.556Z,1006.86
2017-05-07T01:25:58.129Z,1006.87
2017-05-07T01:26:38.782Z,1006.88
2017-05-07T01:27:19.376Z,1006.87
2017-05-07T01:27:59.957Z,1006.83
2017-05-07T01:28:40.534Z,1006.85
2017-05-07T01:29:21.097Z,1006.86
2017-05-07T01:30:01.680Z,1006.87
2017-05-07T01:30:42.262Z,1006.83
2017-05-07T01:31:22.845Z,1006.83
2017-05-07T01:32:03.459Z,1006.82
2017-05-07T01:32:44.053Z,1006.86
2017-05-07T01:33:24.643Z,1006.84
2017-05-07T01:34:05.222Z,1006.84
2017-05-07T01:34:45.810Z,1006.82
2017-05-07T01:35:26.391Z,1006.83
2017-05-07T01:36:06.986Z,1006.81
2017-05-07T01:36:47.574Z,1006.81
2017-05-07T01:37:28.185Z,1006.82
2017-05-07T01:38:08.755Z,1006.81
2017-05-07T01:38:49.400Z,1006.79
2017-05-07T01:39:29.976Z,1006.84
2017-05-07T01:40:10.543Z,1006.76
2017-05-07T01:40:51.126Z,1006.75
2017-05-07T01:41:31.707Z,1006.77
2017-05-07T01:42:12.280Z,1006.79
2017-05-07T01:42:52.880Z,1006.78
2017-05-07T01:43:33.481Z,1006.78
2017-05-07T01:44:14.081Z,1006.8
2017-05-07T01:44:54.650Z,1006.81
2017-05-07T01:45:35.242Z,1006.79
2017-05-07T01:46:15.835Z,1006.77
2017-05-07T01:46:56.479Z,1006.72
2017-05-07T01:47:37.068Z,1006.7
2017-05-07T01:48:17.658Z,1006.71
2017-05-07T01:48:58.247Z,1006.67
2017-05-07T01:49:38.817Z,1006.64
2017-05-07T01:50:19.407Z,1006.65
2017-05-07T01:51:00.023Z,1006.67
2017-05-07T01:51:40.632Z,1006.66
2017-05-07T01:52:21.281Z,1006.67
2017-05-07T01:53:01.888Z,1006.65
2017-05-07T01:53:42.469Z,1006.69
2017-05-07T01:54:23.069Z,1006.65
2017-05-07T01:55:03.701Z,1006.63
2017-05-07T01:55:44.299Z,1006.66
2017-05-07T01:56:24.912Z,1006.68
2017-05-07T01:57:05.473Z,1006.71
2017-05-07T01:57:46.077Z,1006.7
2017-05-07T01:58:26.656Z,1006.72
2017-05-07T01:59:07.284Z,1006.69
2017-05-07T01:59:47.911Z,1006.68
2017-05-07T02:00:28.496Z,1006.68
2017-05-07T02:01:09.102Z,1006.66
2017-05-07T02:01:49.681Z,1006.66
2017-05-07T02:02:30.265Z,1006.67
2017-05-07T02:03:10.868Z,1006.63
2017-05-07T02:03:51.461Z,1006.64
2017-05-07T02:04:32.086Z,1006.63
2017-05-07T02:05:12.676Z,1006.66
2017-05-07T02:05:53.244Z,1006.63
2017-05-07T02:06:33.827Z,1006.63
2017-05-07T02:07:14.456Z,1006.64
2017-05-07T02:07:55.025Z,1006.66
2017-05-07T02:08:35.592Z,1006.63
2017-05-07T02:09:16.271Z,1006.63
2017-05-07T02:09:56.895Z,1006.61
2017-05-07T02:10:37.474Z,1006.62
2017-05-07T02:11:18.056Z,1006.63
2017-05-07T02:11:58.633Z,1006.61
2017-05-07T02:12:39.212Z,1006.64
2017-05-07T02:13:19.812Z,1006.64
2017-05-07T02:14:00.403Z,1006.6
2017-05-07T02:14:40.998Z,1006.57
2017-05-07T02:15:21.585Z,1006.57
2017-05-07T02:16:02.173Z,1006.58
2017-05-07T02:16:42.765Z,1006.6
2017-05-07T02:17:23.360Z,1006.57
2017-05-07T02:18:03.928Z,1006.62
2017-05-07T02:18:44.547Z,1006.58
2017-05-07T02:19:25.132Z,1006.61
2017-05-07T02:20:05.756Z,1006.62
2017-05-07T02:20:46.343Z,1006.65
2017-05-07T02:21:26.954Z,1006.67
2017-05-07T02:22:07.578Z,1006.65
2017-05-07T02:22:48.178Z,1006.67
2017-05-07T02:23:28.782Z,1006.66
2017-05-07T02:24:09.405Z,1006.67
2017-05-07T02:24:50.006Z,1006.66
2017-05-07T02:25:30.592Z,1006.67
2017-05-07T02:26:11.189Z,1006.62
2017-05-07T02:26:51.795Z,1006.63
2017-05-07T02:27:32.500Z,1006.61
2017-05-07T02:28:13.114Z,1006.59
2017-05-07T02:28:53.693Z,1006.62
2017-05-07T02:29:34.282Z,1006.62
2017-05-07T02:30:14.925Z,1006.61
2017-05-07T02:30:55.524Z,1006.57
2017-05-07T02:31:36.109Z,1006.57
2017-05-07T02:32:16.693Z,1006.54
2017-05-07T02:32:57.276Z,1006.5
2017-05-07T02:33:37.867Z,1006.54
2017-05-07T02:34:18.488Z,1006.54
2017-05-07T02:34:59.070Z,1006.54
2017-05-07T02:35:39.751Z,1006.49
2017-05-07T02:36:20.331Z,1006.51
2017-05-07T02:37:00.935Z,1006.49
2017-05-07T02:37:41.550Z,1006.52
2017-05-07T02:38:22.128Z,1006.5
2017-05-07T02:39:02.743Z,1006.48
2017-05-07T02:39:43.333Z,1006.48
2017-05-07T02:40:23.947Z,1006.51
2017-05-07T02:41:04.538Z,1006.49
2017-05-07T02:41:45.244Z,1006.48
2017-05-07T02:42:25.855Z,1006.44
2017-05-07T02:43:06.497Z,1006.48
2017-05-07T02:43:47.090Z,1006.44
2017-05-07T02:44:27.671Z,1006.44
2017-05-07T02:45:08.281Z,1006.42
2017-05-07T02:45:48.850Z,1006.46
2017-05-07T02:46:29.445Z,1006.42
2017-05-07T02:47:09.986Z,1006.46
2017-05-07T02:47:50.585Z,1006.44
2017-05-07T02:48:31.152Z,1006.45
2017-05-07T02:49:11.746Z,1006.42
2017-05-07T02:49:52.320Z,1006.45
2017-05-07T02:50:32.913Z,1006.42
2017-05-07T02:51:13.490Z,1006.43
2017-05-07T02:51:54.049Z,1006.44
2017-05-07T02:52:34.831Z,1006.43
2017-05-07T02:53:15.411Z,1006.45
2017-05-07T02:53:56.052Z,1006.37
2017-05-07T02:54:36.667Z,1006.4
2017-05-07T02:55:17.287Z,1006.38
2017-05-07T02:55:57.862Z,1006.41
2017-05-07T02:56:38.444Z,1006.36
2017-05-07T02:57:19.041Z,1006.37
2017-05-07T02:57:59.608Z,1006.39
2017-05-07T02:58:40.207Z,1006.38
2017-05-07T02:59:20.784Z,1006.43
2017-05-07T03:00:01.344Z,1006.34
2017-05-07T03:00:41.924Z,1006.38
2017-05-07T03:01:22.514Z,1006.36
2017-05-07T03:02:03.104Z,1006.38
2017-05-07T03:02:43.674Z,1006.36
2017-05-07T03:03:24.242Z,1006.35
2017-05-07T03:04:04.869Z,1006.37
2017-05-07T03:04:45.439Z,1006.38
2017-05-07T03:05:25.996Z,1006.38
2017-05-07T03:06:06.577Z,1006.35
2017-05-07T03:06:47.137Z,1006.35
2017-05-07T03:07:27.744Z,1006.34
2017-05-07T03:08:08.299Z,1006.34
2017-05-07T03:08:48.899Z,1006.3
2017-05-07T03:09:29.549Z,1006.29
2017-05-07T03:10:10.215Z,1006.31
2017-05-07T03:10:50.814Z,1006.34
2017-05-07T03:11:31.416Z,1006.33
2017-05-07T03:12:12.009Z,1006.34
2017-05-07T03:12:52.597Z,1006.32
2017-05-07T03:13:33.200Z,1006.27
2017-05-07T03:14:13.775Z,1006.32
2017-05-07T03:14:54.367Z,1006.28
2017-05-07T03:15:34.972Z,1006.29
2017-05-07T03:16:15.597Z,1006.29
2017-05-07T03:16:56.188Z,1006.33
2017-05-07T03:17:36.765Z,1006.29
2017-05-07T03:18:17.356Z,1006.3
2017-05-07T03:18:57.942Z,1006.27
2017-05-07T03:19:38.530Z,1006.27
2017-05-07T03:20:19.146Z,1006.28
2017-05-07T03:20:59.743Z,1006.31
2017-05-07T03:21:40.311Z,1006.28
2017-05-07T03:22:20.905Z,1006.29
2017-05-07T03:23:01.555Z,1006.29
2017-05-07T03:23:42.152Z,1006.29
2017-05-07T03:24:22.778Z,1006.25
2017-05-07T03:25:03.420Z,1006.23
2017-05-07T03:25:44.020Z,1006.25
2017-05-07T03:26:24.617Z,1006.3
2017-05-07T03:27:05.194Z,1006.25
2017-05-07T03:27:45.776Z,1006.29
2017-05-07T03:28:26.474Z,1006.31
2017-05-07T03:29:07.087Z,1006.26
2017-05-07T03:29:47.682Z,1006.3
2017-05-07T03:30:28.309Z,1006.29
2017-05-07T03:31:08.890Z,1006.28
2017-05-07T03:31:49.548Z,1006.29
2017-05-07T03:32:30.106Z,1006.33
2017-05-07T03:33:10.743Z,1006.28
2017-05-07T03:33:51.389Z,1006.3
2017-05-07T03:34:31.968Z,1006.31
2017-05-07T03:35:12.570Z,1006.27
2017-05-07T03:35:53.211Z,1006.26
2017-05-07T03:36:33.819Z,1006.27
2017-05-07T03:37:14.413Z,1006.22
2017-05-07T03:37:55.001Z,1006.26
2017-05-07T03:38:35.606Z,1006.29
2017-05-07T03:39:16.223Z,1006.28
2017-05-07T03:39:56.831Z,1006.27
2017-05-07T03:40:37.435Z,1006.26
2017-05-07T03:41:18.015Z,1006.24
2017-05-07T03:41:58.629Z,1006.23
2017-05-07T03:42:39.294Z,1006.22
2017-05-07T03:43:19.894Z,1006.22
2017-05-07T03:44:00.552Z,1006.21
2017-05-07T03:44:41.159Z,1006.19
2017-05-07T03:45:21.744Z,1006.22
2017-05-07T03:46:02.355Z,1006.23
2017-05-07T03:46:42.951Z,1006.25
2017-05-07T03:47:23.548Z,1006.24
2017-05-07T03:48:04.243Z,1006.24
2017-05-07T03:48:44.766Z,1006.25
2017-05-07T03:49:25.350Z,1006.24
2017-05-07T03:50:05.925Z,1006.22
2017-05-07T03:50:46.531Z,1006.28
2017-05-07T03:51:27.143Z,1006.27
2017-05-07T03:52:07.748Z,1006.3
2017-05-07T03:52:48.324Z,1006.26
2017-05-07T03:53:28.897Z,1006.26
2017-05-07T03:54:09.549Z,1006.27
2017-05-07T03:54:50.132Z,1006.28
2017-05-07T03:55:30.727Z,1006.28
2017-05-07T03:56:11.388Z,1006.27
2017-05-07T03:56:51.973Z,1006.25
2017-05-07T03:57:32.553Z,1006.27
2017-05-07T03:58:13.147Z,1006.26
2017-05-07T03:58:53.761Z,1006.26
2017-05-07T03:59:34.339Z,1006.3
2017-05-07T04:00:14.945Z,1006.27
2017-05-07T04:00:55.532Z,1006.3
2017-05-07T04:01:36.126Z,1006.25
2017-05-07T04:02:16.706Z,1006.25
2017-05-07T04:02:57.280Z,1006.26
2017-05-07T04:03:37.881Z,1006.27
2017-05-07T04:04:18.466Z,1006.24
2017-05-07T04:04:59.089Z,1006.23
2017-05-07T04:05:39.674Z,1006.23
2017-05-07T04:06:20.289Z,1006.22
2017-05-07T04:07:00.933Z,1006.27
2017-05-07T04:07:41.549Z,1006.29
2017-05-07T04:08:22.117Z,1006.27
2017-05-07T04:09:02.703Z,1006.27
2017-05-07T04:09:43.372Z,1006.24
2017-05-07T04:10:23.943Z,1006.24
2017-05-07T04:11:04.512Z,1006.29
2017-05-07T04:11:45.087Z,1006.23
2017-05-07T04:12:25.726Z,1006.21
2017-05-07T04:13:06.297Z,1006.24
2017-05-07T04:13:46.907Z,1006.23
2017-05-07T04:14:27.523Z,1006.23
2017-05-07T04:15:08.115Z,1006.23
2017-05-07T04:15:48.718Z,1006.22
2017-05-07T04:16:29.321Z,1006.22
2017-05-07T04:17:09.916Z,1006.24
2017-05-07T04:17:50.502Z,1006.24
2017-05-07T04:18:31.108Z,1006.22
2017-05-07T04:19:11.726Z,1006.23
2017-05-07T04:19:52.321Z,1006.27
2017-05-07T04:20:32.899Z,1006.23
2017-05-07T04:21:13.479Z,1006.27
2017-05-07T04:21:54.094Z,1006.22
2017-05-07T04:22:34.688Z,1006.28
2017-05-07T04:23:15.373Z,1006.23
2017-05-07T04:23:55.932Z,1006.25
2017-05-07T04:24:36.521Z,1006.24
2017-05-07T04:25:17.184Z,1006.3
2017-05-07T04:25:57.814Z,1006.29
2017-05-07T04:26:38.477Z,1006.28
2017-05-07T04:27:19.091Z,1006.26
2017-05-07T04:27:59.694Z,1006.28
2017-05-07T04:28:40.334Z,1006.28
2017-05-07T04:29:20.938Z,1006.31
2017-05-07T04:30:01.588Z,1006.29
2017-05-07T04:30:42.229Z,1006.33
2017-05-07T04:31:22.820Z,1006.32
2017-05-07T04:32:03.401Z,1006.35
2017-05-07T04:32:44.004Z,1006.36
2017-05-07T04:33:24.630Z,1006.35
2017-05-07T04:34:05.333Z,1006.32
2017-05-07T04:34:45.972Z,1006.37
2017-05-07T04:35:26.649Z,1006.39
2017-05-07T04:36:07.286Z,1006.34
2017-05-07T04:36:47.936Z,1006.3
2017-05-07T04:37:28.590Z,1006.32
2017-05-07T04:38:09.213Z,1006.33
2017-05-07T04:38:49.834Z,1006.29
2017-05-07T04:39:30.517Z,1006.31
2017-05-07T04:40:11.123Z,1006.31
2017-05-07T04:40:51.768Z,1006.33
2017-05-07T04:41:32.447Z,1006.33
2017-05-07T04:42:13.091Z,1006.33
2017-05-07T04:42:53.710Z,1006.3
2017-05-07T04:43:34.283Z,1006.28
2017-05-07T04:44:14.980Z,1006.33
2017-05-07T04:44:55.624Z,1006.33
2017-05-07T04:45:36.255Z,1006.35
2017-05-07T04:46:16.847Z,1006.33
2017-05-07T04:46:57.500Z,1006.35
2017-05-07T04:47:38.087Z,1006.38
2017-05-07T04:48:18.709Z,1006.36
2017-05-07T04:48:59.343Z,1006.4
2017-05-07T04:49:39.969Z,1006.39
2017-05-07T04:50:20.603Z,1006.4
2017-05-07T04:51:01.265Z,1006.41
2017-05-07T04:51:41.905Z,1006.42
2017-05-07T04:52:22.512Z,1006.43
2017-05-07T04:53:03.160Z,1006.41
2017-05-07T04:53:43.857Z,1006.41
2017-05-07T04:54:24.524Z,1006.4
2017-05-07T04:55:05.170Z,1006.45
2017-05-07T04:55:45.807Z,1006.44
2017-05-07T04:56:26.472Z,1006.46
2017-05-07T04:57:07.190Z,1006.53
2017-05-07T04:57:47.871Z,1006.47
2017-05-07T04:58:28.571Z,1006.51
2017-05-07T04:59:09.265Z,1006.48
2017-05-07T04:59:50.116Z,1006.49
2017-05-07T05:00:30.764Z,1006.51
2017-05-07T05:01:11.519Z,1006.48
2017-05-07T05:01:52.168Z,1006.51
2017-05-07T05:02:32.812Z,1006.52
2017-05-07T05:03:13.523Z,1006.53
2017-05-07T05:03:54.214Z,1006.5
2017-05-07T05:04:34.856Z,1006.53
2017-05-07T05:05:15.535Z,1006.57
2017-05-07T05:05:56.178Z,1006.56
2017-05-07T05:06:36.848Z,1006.61
2017-05-07T05:07:17.542Z,1006.6
2017-05-07T05:07:58.130Z,1006.65
2017-05-07T05:08:38.793Z,1006.64
2017-05-07T05:09:19.513Z,1006.65
2017-05-07T05:10:00.180Z,1006.67
2017-05-07T05:10:40.804Z,1006.68
2017-05-07T05:11:21.518Z,1006.71
2017-05-07T05:12:02.221Z,1006.71
2017-05-07T05:12:42.841Z,1006.73
2017-05-07T05:13:23.537Z,1006.75
2017-05-07T05:14:04.251Z,1006.76
2017-05-07T05:14:44.860Z,1006.75
2017-05-07T05:15:25.484Z,1006.74
2017-05-07T05:16:06.145Z,1006.76
2017-05-07T05:16:46.811Z,1006.71
2017-05-07T05:17:27.455Z,1006.74
2017-05-07T05:18:08.172Z,1006.72
2017-05-07T05:18:48.891Z,1006.75
2017-05-07T05:19:29.560Z,1006.72
2017-05-07T05:20:10.177Z,1006.69
2017-05-07T05:20:50.848Z,1006.76
2017-05-07T05:21:31.531Z,1006.78
2017-05-07T05:22:12.149Z,1006.74
2017-05-07T05:22:52.781Z,1006.75
2017-05-07T05:23:33.463Z,1006.75
2017-05-07T05:24:14.188Z,1006.76
2017-05-07T05:24:54.808Z,1006.76
2017-05-07T05:25:35.458Z,1006.7
2017-05-07T05:26:16.139Z,1006.74
2017-05-07T05:26:56.795Z,1006.78
2017-05-07T05:27:37.481Z,1006.76
2017-05-07T05:28:18.197Z,1006.77
2017-05-07T05:28:58.838Z,1006.84
2017-05-07T05:29:39.465Z,1006.83
2017-05-07T05:30:20.161Z,1006.83
2017-05-07T05:31:00.768Z,1006.82
2017-05-07T05:31:41.391Z,1006.86
2017-05-07T05:32:22.028Z,1006.84
2017-05-07T05:33:02.708Z,1006.9
2017-05-07T05:33:43.325Z,1006.87
2017-05-07T05:34:23.948Z,1006.85
2017-05-07T05:35:04.572Z,1006.87
2017-05-07T05:35:45.178Z,1006.9
2017-05-07T05:36:25.850Z,1006.82
2017-05-07T05:37:06.464Z,1006.89
2017-05-07T05:37:47.095Z,1006.86
2017-05-07T05:38:27.764Z,1006.85
2017-05-07T05:39:08.447Z,1006.8
2017-05-07T05:39:49.069Z,1006.83
2017-05-07T05:40:29.706Z,1006.85
2017-05-07T05:41:10.382Z,1006.81
2017-05-07T05:41:51.022Z,1006.82
2017-05-07T05:42:31.625Z,1006.81
2017-05-07T05:43:12.269Z,1006.85
2017-05-07T05:43:52.951Z,1006.86
2017-05-07T05:44:33.572Z,1006.85
2017-05-07T05:45:14.180Z,1006.89
2017-05-07T05:45:54.813Z,1006.88
2017-05-07T05:46:35.450Z,1006.93
2017-05-07T05:47:16.108Z,1006.94
2017-05-07T05:47:56.714Z,1006.92
2017-05-07T05:48:37.338Z,1006.95
2017-05-07T05:49:17.974Z,1006.96
2017-05-07T05:49:58.559Z,1006.94
2017-05-07T05:50:39.184Z,1006.96
2017-05-07T05:51:19.843Z,1006.94
2017-05-07T05:52:00.469Z,1006.94
2017-05-07T05:52:42.888Z,1006.96
2017-05-07T05:53:26.930Z,1006.96
2017-05-07T05:54:09.093Z,1007
2017-05-07T05:54:50.316Z,1006.98
2017-05-07T05:55:33.261Z,1007.02
2017-05-07T05:56:17.751Z,1007.01
2017-05-07T05:57:01.028Z,1007.03
2017-05-07T05:57:42.778Z,1007.04
2017-05-07T05:58:26.038Z,1007.04
2017-05-07T05:59:09.872Z,1007.07
2017-05-07T05:59:52.918Z,1007.08
2017-05-07T06:01:21.620Z,1007.1
2017-05-07T06:02:07.584Z,1007.11
2017-05-07T06:02:48.223Z,1007.12
2017-05-07T06:03:30.143Z,1007.09
2017-05-07T06:04:17.564Z,1007.1
2017-05-07T06:05:00.257Z,1007.09
2017-05-07T06:05:43.313Z,1007.12
2017-05-07T06:06:24.500Z,1007.11
2017-05-07T06:07:05.168Z,1007.1
2017-05-07T06:07:45.788Z,1007.1
2017-05-07T06:08:26.414Z,1007.08
2017-05-07T06:09:07.030Z,1007.11
2017-05-07T06:09:47.655Z,1007.11
2017-05-07T06:10:28.300Z,1007.14
2017-05-07T06:11:08.963Z,1007.1
2017-05-07T06:11:49.596Z,1007.14
2017-05-07T06:12:30.255Z,1007.13
2017-05-07T06:13:10.874Z,1007.15
2017-05-07T06:13:51.504Z,1007.1
2017-05-07T06:14:32.105Z,1007.14
2017-05-07T06:15:12.731Z,1007.15
2017-05-07T06:15:53.322Z,1007.2
2017-05-07T06:16:33.931Z,1007.12
2017-05-07T06:17:14.528Z,1007.15
2017-05-07T06:17:55.139Z,1007.21
2017-05-07T06:18:35.746Z,1007.18
2017-05-07T06:19:16.373Z,1007.19
2017-05-07T06:19:57.020Z,1007.22
2017-05-07T06:20:37.617Z,1007.19
2017-05-07T06:21:18.316Z,1007.23
2017-05-07T06:21:58.908Z,1007.21
2017-05-07T06:22:39.548Z,1007.21
2017-05-07T06:23:20.148Z,1007.22
2017-05-07T06:24:00.835Z,1007.22
2017-05-07T06:24:41.483Z,1007.21
2017-05-07T06:25:22.098Z,1007.21
2017-05-07T06:26:02.734Z,1007.21
2017-05-07T06:26:43.323Z,1007.22
2017-05-07T06:27:23.911Z,1007.23
2017-05-07T06:28:04.563Z,1007.27
2017-05-07T06:28:45.115Z,1007.22
2017-05-07T06:29:25.738Z,1007.27
2017-05-07T06:30:06.344Z,1007.26
2017-05-07T06:30:46.939Z,1007.25
2017-05-07T06:31:27.530Z,1007.34
2017-05-07T06:32:08.164Z,1007.3
2017-05-07T06:32:48.755Z,1007.33
2017-05-07T06:33:29.367Z,1007.3
2017-05-07T06:34:09.966Z,1007.32
2017-05-07T06:34:50.603Z,1007.31
2017-05-07T06:35:31.174Z,1007.32
2017-05-07T06:36:11.770Z,1007.26
2017-05-07T06:36:52.381Z,1007.3
2017-05-07T06:37:32.995Z,1007.27
2017-05-07T06:38:13.625Z,1007.28
2017-05-07T06:38:54.266Z,1007.31
2017-05-07T06:39:34.863Z,1007.26
2017-05-07T06:40:15.497Z,1007.33
2017-05-07T06:40:56.139Z,1007.32
2017-05-07T06:41:36.816Z,1007.31
2017-05-07T06:42:17.475Z,1007.29
2017-05-07T06:42:58.100Z,1007.34
2017-05-07T06:43:38.721Z,1007.27
2017-05-07T06:44:19.350Z,1007.33
2017-05-07T06:44:59.989Z,1007.3
2017-05-07T06:45:40.587Z,1007.37
2017-05-07T06:46:21.211Z,1007.36
2017-05-07T06:47:01.827Z,1007.31
2017-05-07T06:47:42.465Z,1007.35
2017-05-07T06:48:23.085Z,1007.37
2017-05-07T06:49:03.713Z,1007.37
2017-05-07T06:49:44.440Z,1007.39
2017-05-07T06:50:25.019Z,1007.4
2017-05-07T06:51:05.618Z,1007.42
2017-05-07T06:51:46.228Z,1007.43
2017-05-07T06:52:26.895Z,1007.43
2017-05-07T06:53:07.492Z,1007.41
2017-05-07T06:53:48.109Z,1007.44
2017-05-07T06:54:28.714Z,1007.47
2017-05-07T06:55:09.333Z,1007.47
2017-05-07T06:55:49.941Z,1007.44
2017-05-07T06:56:30.582Z,1007.49
2017-05-07T06:57:11.190Z,1007.49
2017-05-07T06:57:51.777Z,1007.47
2017-05-07T06:58:32.505Z,1007.51
2017-05-07T06:59:13.070Z,1007.52
2017-05-07T06:59:53.676Z,1007.48
2017-05-07T07:00:34.275Z,1007.48
2017-05-07T07:01:14.911Z,1007.46
2017-05-07T07:01:55.544Z,1007.44
2017-05-07T07:02:36.158Z,1007.47
2017-05-07T07:03:17.942Z,1007.46
2017-05-07T07:04:00.545Z,1007.45
2017-05-07T07:04:41.158Z,1007.44
2017-05-07T07:05:21.773Z,1007.46
2017-05-07T07:06:02.457Z,1007.45
2017-05-07T07:06:43.107Z,1007.45
2017-05-07T07:07:23.710Z,1007.47
2017-05-07T07:08:07.560Z,1007.45
2017-05-07T07:08:49.473Z,1007.43
2017-05-07T07:09:30.105Z,1007.48
2017-05-07T07:10:12.291Z,1007.47
2017-05-07T07:10:54.659Z,1007.48
2017-05-07T07:11:35.495Z,1007.48
2017-05-07T07:12:16.549Z,1007.5
2017-05-07T07:12:57.232Z,1007.56
2017-05-07T07:13:39.354Z,1007.53
2017-05-07T07:14:21.680Z,1007.58
2017-05-07T07:15:02.372Z,1007.58
2017-05-07T07:15:43.008Z,1007.6
2017-05-07T07:16:23.639Z,1007.58
2017-05-07T07:17:07.563Z,1007.59
2017-05-07T07:17:53.174Z,1007.59
2017-05-07T07:18:42.805Z,1007.62
2017-05-07T07:19:28.516Z,1007.57
2017-05-07T07:20:11.700Z,1007.61
2017-05-07T07:20:54.178Z,1007.59
2017-05-07T07:21:34.784Z,1007.59
2017-05-07T07:22:18.059Z,1007.56
2017-05-07T07:23:10.118Z,1007.55
2017-05-07T07:23:51.769Z,1007.51
2017-05-07T07:24:35.033Z,1007.5
2017-05-07T07:25:17.735Z,1007.51
2017-05-07T07:25:58.381Z,1007.53
2017-05-07T07:26:39.247Z,1007.52
2017-05-07T07:27:19.883Z,1007.53
2017-05-07T07:28:00.527Z,1007.49
2017-05-07T07:28:41.143Z,1007.54
2017-05-07T07:29:21.730Z,1007.49
2017-05-07T07:30:02.381Z,1007.5
2017-05-07T07:30:44.033Z,1007.5
2017-05-07T07:31:28.033Z,1007.5
2017-05-07T07:32:14.715Z,1007.54
2017-05-07T07:32:57.162Z,1007.55
2017-05-07T07:33:37.806Z,1007.52
2017-05-07T07:34:20.251Z,1007.54
2017-05-07T07:35:02.789Z,1007.55
2017-05-07T07:35:45.743Z,1007.56
2017-05-07T07:36:28.648Z,1007.55
2017-05-07T07:37:11.661Z,1007.58
2017-05-07T07:37:54.143Z,1007.55
2017-05-07T07:38:36.371Z,1007.59
2017-05-07T07:39:20.713Z,1007.58
2017-05-07T07:40:01.970Z,1007.58
2017-05-07T07:40:44.750Z,1007.56
2017-05-07T07:41:27.096Z,1007.55
2017-05-07T07:42:09.468Z,1007.61
2017-05-07T07:42:50.633Z,1007.63
2017-05-07T07:43:31.345Z,1007.58
2017-05-07T07:44:12.254Z,1007.61
2017-05-07T07:44:56.737Z,1007.64
2017-05-07T07:45:37.426Z,1007.66
2017-05-07T07:46:18.315Z,1007.65
2017-05-07T07:46:59.475Z,1007.7
2017-05-07T07:47:40.059Z,1007.68
2017-05-07T07:48:22.378Z,1007.69
2017-05-07T07:49:03.172Z,1007.7
2017-05-07T07:49:43.845Z,1007.7
2017-05-07T07:50:24.458Z,1007.7
2017-05-07T07:51:05.068Z,1007.69
2017-05-07T07:51:46.482Z,1007.73
2017-05-07T07:52:27.097Z,1007.74
2017-05-07T07:53:08.129Z,1007.73
2017-05-07T07:53:50.381Z,1007.74
2017-05-07T07:54:31.462Z,1007.78
2017-05-07T07:55:12.179Z,1007.75
2017-05-07T07:55:52.788Z,1007.81
2017-05-07T07:56:33.453Z,1007.77
2017-05-07T07:57:14.220Z,1007.74
2017-05-07T07:57:54.846Z,1007.79
2017-05-07T07:58:35.473Z,1007.75
2017-05-07T07:59:16.091Z,1007.71
2017-05-07T07:59:56.801Z,1007.76
2017-05-07T08:00:37.422Z,1007.77
2017-05-07T08:01:18.020Z,1007.76
2017-05-07T08:01:58.641Z,1007.75
2017-05-07T08:02:39.323Z,1007.77
2017-05-07T08:03:19.912Z,1007.83
2017-05-07T08:04:00.543Z,1007.77
2017-05-07T08:04:41.157Z,1007.76
2017-05-07T08:05:21.823Z,1007.8
2017-05-07T08:06:02.444Z,1007.81
2017-05-07T08:06:43.069Z,1007.81
2017-05-07T08:07:23.706Z,1007.78
2017-05-07T08:08:04.297Z,1007.81
2017-05-07T08:08:44.953Z,1007.81
2017-05-07T08:09:25.594Z,1007.81
2017-05-07T08:10:06.206Z,1007.84
2017-05-07T08:10:46.860Z,1007.85
2017-05-07T08:11:27.513Z,1007.86
2017-05-07T08:12:08.131Z,1007.81
2017-05-07T08:12:48.738Z,1007.82
2017-05-07T08:13:29.344Z,1007.82
2017-05-07T08:14:09.931Z,1007.81
2017-05-07T08:14:50.565Z,1007.79
2017-05-07T08:15:31.166Z,1007.82
2017-05-07T08:16:11.745Z,1007.82